createdAt,value
2023-03-01T00:00:15.217Z,-3.66
2023-03-01T00:02:20.182Z,-3.68
2023-03-01T00:04:25.099Z,-3.66
2023-03-01T00:06:31.700Z,-3.67
2023-03-01T00:08:37.594Z,-3.66
2023-03-01T00:10:44.063Z,-3.76
2023-03-01T00:12:49.005Z,-3.71
2023-03-01T00:14:54.488Z,-3.68
2023-03-01T00:17:03.092Z,-3.74
2023-03-01T00:19:09.025Z,-3.64
2023-03-01T00:21:14.042Z,-3.70
2023-03-01T00:23:22.556Z,-3.78
2023-03-01T00:25:27.511Z,-3.82
2023-03-01T00:27:33.084Z,-3.78
2023-03-01T00:29:38.043Z,-3.75
2023-03-01T00:31:43.240Z,-3.77
2023-03-01T00:33:51.543Z,-3.75
2023-03-01T00:35:56.461Z,-3.82
2023-03-01T00:38:01.906Z,-3.82
2023-03-01T00:40:09.079Z,-3.90
2023-03-01T00:42:14.966Z,-3.91
2023-03-01T00:44:20.411Z,-3.93
2023-03-01T00:46:31.374Z,-3.92
2023-03-01T00:48:37.962Z,-3.87
2023-03-01T00:50:45.667Z,-3.86
2023-03-01T00:52:50.729Z,-3.70
2023-03-01T00:54:57.124Z,-3.61
2023-03-01T00:57:02.851Z,-3.57
2023-03-01T00:59:08.535Z,-3.53
2023-03-01T01:01:20.900Z,-3.54
2023-03-01T01:03:27.369Z,-3.63
2023-03-01T01:05:33.138Z,-3.74
2023-03-01T01:07:40.801Z,-3.77
2023-03-01T01:09:45.730Z,-3.75
2023-03-01T01:11:54.146Z,-3.75
2023-03-01T01:14:01.033Z,-3.72
2023-03-01T01:16:09.380Z,-3.72
2023-03-01T01:18:15.095Z,-3.68
2023-03-01T01:20:20.845Z,-3.80
2023-03-01T01:22:26.099Z,-3.86
2023-03-01T01:24:33.620Z,-3.86
2023-03-01T01:26:39.031Z,-3.82
2023-03-01T01:28:44.887Z,-3.83
2023-03-01T01:30:49.850Z,-3.86
2023-03-01T01:32:55.148Z,-3.83
2023-03-01T01:35:00.442Z,-3.81
2023-03-01T01:37:08.803Z,-3.86
2023-03-01T01:39:14.672Z,-3.99
2023-03-01T01:41:24.440Z,-4.05
2023-03-01T01:43:32.582Z,-3.97
2023-03-01T01:45:40.231Z,-3.91
2023-03-01T01:47:49.624Z,-3.86
2023-03-01T01:49:58.245Z,-3.76
2023-03-01T01:52:14.516Z,-3.69
2023-03-01T01:54:24.985Z,-3.59
2023-03-01T01:56:33.699Z,-3.57
2023-03-01T01:58:39.726Z,-3.52
2023-03-01T02:00:44.719Z,-3.40
2023-03-01T02:02:56.184Z,-3.42
2023-03-01T02:05:14.376Z,-3.53
2023-03-01T02:07:25.027Z,-3.48
2023-03-01T02:09:31.748Z,-3.52
2023-03-01T02:11:40.665Z,-3.50
2023-03-01T02:13:46.413Z,-3.42
2023-03-01T02:15:51.775Z,-3.21
2023-03-01T02:17:58.663Z,-3.05
2023-03-01T02:20:17.683Z,-3.13
2023-03-01T02:22:29.016Z,-3.24
2023-03-01T02:24:45.439Z,-3.35
2023-03-01T02:26:56.491Z,-3.31
2023-03-01T02:29:04.312Z,-3.39
2023-03-01T02:31:24.973Z,-3.37
2023-03-01T02:33:34.211Z,-3.20
2023-03-01T02:35:42.490Z,-3.12
2023-03-01T02:37:48.620Z,-3.16
2023-03-01T02:40:02.175Z,-3.17
2023-03-01T02:42:10.143Z,-3.26
2023-03-01T02:44:17.876Z,-3.37
2023-03-01T02:46:26.306Z,-3.54
2023-03-01T02:48:31.263Z,-3.49
2023-03-01T02:51:01.226Z,-3.53
2023-03-01T02:53:11.873Z,-3.52
2023-03-01T02:55:21.177Z,-3.59
2023-03-01T02:57:28.970Z,-3.68
2023-03-01T02:59:40.821Z,-3.81
2023-03-01T03:01:47.518Z,-3.85
2023-03-01T03:03:53.203Z,-3.84
2023-03-01T03:05:58.688Z,-3.88
2023-03-01T03:08:06.686Z,-3.85
2023-03-01T03:10:21.183Z,-3.95
2023-03-01T03:12:26.781Z,-3.97
2023-03-01T03:14:36.282Z,-3.93
2023-03-01T03:16:45.094Z,-3.82
2023-03-01T03:18:51.737Z,-3.86
2023-03-01T03:20:57.935Z,-3.82
2023-03-01T03:23:02.976Z,-3.89
2023-03-01T03:25:11.369Z,-3.87
2023-03-01T03:27:16.993Z,-3.86
2023-03-01T03:29:21.887Z,-3.89
2023-03-01T03:31:28.270Z,-3.90
2023-03-01T03:33:36.052Z,-3.86
2023-03-01T03:35:45.449Z,-3.79
2023-03-01T03:38:07.227Z,-3.79
2023-03-01T03:40:16.541Z,-3.77
2023-03-01T03:42:21.754Z,-3.76
2023-03-01T03:44:26.821Z,-3.71
2023-03-01T03:46:32.060Z,-3.48
2023-03-01T03:48:42.487Z,-3.41
2023-03-01T03:50:53.016Z,-3.52
2023-03-01T03:52:58.973Z,-3.31
2023-03-01T03:55:10.539Z,-3.33
2023-03-01T03:57:15.927Z,-3.34
2023-03-01T03:59:20.857Z,-3.30
2023-03-01T04:01:26.280Z,-3.26
2023-03-01T04:03:33.429Z,-3.17
2023-03-01T04:05:42.683Z,-3.01
2023-03-01T04:07:49.825Z,-2.99
2023-03-01T04:09:54.709Z,-2.94
2023-03-01T04:12:02.312Z,-2.80
2023-03-01T04:14:08.002Z,-2.83
2023-03-01T04:16:12.900Z,-2.88
2023-03-01T04:18:20.137Z,-2.86
2023-03-01T04:20:29.248Z,-2.76
2023-03-01T04:22:37.188Z,-2.63
2023-03-01T04:24:42.699Z,-2.76
2023-03-01T04:26:47.570Z,-2.84
2023-03-01T04:28:53.244Z,-2.98
2023-03-01T04:30:59.856Z,-3.00
2023-03-01T04:33:07.052Z,-3.07
2023-03-01T04:35:12.725Z,-3.13
2023-03-01T04:37:18.022Z,-3.23
2023-03-01T04:39:26.061Z,-3.26
2023-03-01T04:41:31.914Z,-3.27
2023-03-01T04:43:37.967Z,-3.33
2023-03-01T04:45:42.947Z,-3.34
2023-03-01T04:47:49.991Z,-3.35
2023-03-01T04:49:55.947Z,-3.41
2023-03-01T04:52:05.585Z,-3.45
2023-03-01T04:54:11.340Z,-3.53
2023-03-01T04:56:19.872Z,-3.61
2023-03-01T04:58:25.060Z,-3.64
2023-03-01T05:00:30.249Z,-3.71
2023-03-01T05:02:36.251Z,-3.67
2023-03-01T05:04:41.170Z,-3.60
2023-03-01T05:06:48.252Z,-3.59
2023-03-01T05:08:53.456Z,-3.65
2023-03-01T05:10:58.345Z,-3.72
2023-03-01T05:13:08.266Z,-3.85
2023-03-01T05:15:14.237Z,-3.89
2023-03-01T05:17:19.329Z,-3.87
2023-03-01T05:19:25.131Z,-3.95
2023-03-01T05:21:30.151Z,-3.97
2023-03-01T05:23:37.366Z,-4.05
2023-03-01T05:25:44.130Z,-4.09
2023-03-01T05:27:49.371Z,-3.95
2023-03-01T05:29:56.853Z,-3.78
2023-03-01T05:32:04.417Z,-3.69
2023-03-01T05:34:09.343Z,-3.67
2023-03-01T05:36:15.261Z,-3.61
2023-03-01T05:38:20.868Z,-3.50
2023-03-01T05:40:27.909Z,-3.62
2023-03-01T05:42:33.237Z,-3.86
2023-03-01T05:44:38.562Z,-3.89
2023-03-01T05:46:46.059Z,-3.98
2023-03-01T05:48:51.565Z,-4.11
2023-03-01T05:50:56.445Z,-4.28
2023-03-01T05:53:05.431Z,-4.41
2023-03-01T05:55:12.354Z,-4.45
2023-03-01T05:57:17.590Z,-4.53
2023-03-01T05:59:22.493Z,-4.47
2023-03-01T06:01:28.067Z,-4.38
2023-03-01T06:03:35.955Z,-4.39
2023-03-01T06:05:40.921Z,-4.46
2023-03-01T06:07:46.724Z,-4.44
2023-03-01T06:09:51.637Z,-4.46
2023-03-01T06:12:00.931Z,-4.55
2023-03-01T06:14:08.106Z,-4.57
2023-03-01T06:16:14.770Z,-4.57
2023-03-01T06:18:19.715Z,-4.58
2023-03-01T06:20:30.209Z,-4.53
2023-03-01T06:22:35.545Z,-4.44
2023-03-01T06:24:41.183Z,-4.43
2023-03-01T06:26:46.465Z,-4.37
2023-03-01T06:28:53.119Z,-4.33
2023-03-01T06:30:58.243Z,-4.23
2023-03-01T06:33:04.297Z,-4.21
2023-03-01T06:35:11.915Z,-4.20
2023-03-01T06:37:19.945Z,-4.10
2023-03-01T06:39:27.346Z,-4.06
2023-03-01T06:41:34.250Z,-3.93
2023-03-01T06:43:39.559Z,-3.83
2023-03-01T06:45:45.044Z,-3.80
2023-03-01T06:47:50.776Z,-3.71
2023-03-01T06:49:56.366Z,-3.68
2023-03-01T06:52:01.307Z,-3.47
2023-03-01T06:54:09.296Z,-3.38
2023-03-01T06:56:14.315Z,-3.15
2023-03-01T06:58:19.222Z,-2.93
2023-03-01T07:00:26.761Z,-2.77
2023-03-01T07:02:34.931Z,-2.62
2023-03-01T07:04:39.813Z,-2.42
2023-03-01T07:06:45.758Z,-2.24
2023-03-01T07:08:51.509Z,-2.11
2023-03-01T07:11:03.387Z,-2.11
2023-03-01T07:13:10.943Z,-2.05
2023-03-01T07:15:16.228Z,-2.04
2023-03-01T07:17:22.197Z,-1.98
2023-03-01T07:19:27.422Z,-1.85
2023-03-01T07:21:32.813Z,-1.68
2023-03-01T07:23:39.149Z,-1.47
2023-03-01T07:25:44.084Z,-1.32
2023-03-01T07:27:56.974Z,-1.24
2023-03-01T07:30:02.690Z,-1.28
2023-03-01T07:32:08.943Z,-1.16
2023-03-01T07:34:17.193Z,-1.12
2023-03-01T07:36:22.090Z,-1.13
2023-03-01T07:38:27.662Z,-0.99
2023-03-01T07:40:32.617Z,-0.86
2023-03-01T07:42:38.925Z,-0.79
2023-03-01T07:44:46.505Z,-0.78
2023-03-01T07:46:57.360Z,-0.80
2023-03-01T07:49:06.414Z,-0.65
2023-03-01T07:51:11.899Z,-0.64
2023-03-01T07:53:17.130Z,-0.54
2023-03-01T07:55:22.030Z,-0.48
2023-03-01T07:57:28.410Z,-0.41
2023-03-01T07:59:34.011Z,-0.34
2023-03-01T08:01:41.583Z,-0.23
2023-03-01T08:03:49.123Z,-0.23
2023-03-01T08:05:54.018Z,-0.01
2023-03-01T08:08:02.047Z,-0.04
2023-03-01T08:10:07.941Z,0.06
2023-03-01T08:12:13.226Z,0.14
2023-03-01T08:14:18.142Z,0.14
2023-03-01T08:16:23.756Z,0.05
2023-03-01T08:18:31.675Z,0.20
2023-03-01T08:20:36.605Z,0.26
2023-03-01T08:22:41.505Z,0.32
2023-03-01T08:24:46.436Z,0.46
2023-03-01T08:26:51.956Z,0.61
2023-03-01T08:28:57.311Z,0.64
2023-03-01T08:31:02.251Z,0.71
2023-03-01T08:33:07.742Z,0.86
2023-03-01T08:35:15.402Z,1.00
2023-03-01T08:37:20.684Z,1.13
2023-03-01T08:39:26.014Z,1.13
2023-03-01T08:41:31.897Z,1.27
2023-03-01T08:43:37.322Z,1.28
2023-03-01T08:45:42.231Z,1.41
2023-03-01T08:47:47.922Z,1.58
2023-03-01T08:49:54.080Z,1.61
2023-03-01T08:52:02.216Z,1.74
2023-03-01T08:54:07.785Z,1.75
2023-03-01T08:56:14.064Z,1.88
2023-03-01T08:58:19.040Z,1.95
2023-03-01T09:00:26.018Z,1.95
2023-03-01T09:02:30.942Z,2.14
2023-03-01T09:04:36.406Z,2.20
2023-03-01T09:06:41.542Z,2.38
2023-03-01T09:08:51.950Z,2.31
2023-03-01T09:10:56.887Z,2.47
2023-03-01T09:13:02.627Z,2.61
2023-03-01T09:15:09.126Z,2.64
2023-03-01T09:17:14.591Z,2.71
2023-03-01T09:19:19.518Z,2.75
2023-03-01T09:21:39.682Z,2.99
2023-03-01T09:23:50.074Z,2.99
2023-03-01T09:25:56.094Z,3.09
2023-03-01T09:28:01.012Z,3.15
2023-03-01T09:30:06.969Z,3.45
2023-03-01T09:32:12.448Z,3.45
2023-03-01T09:34:20.285Z,3.47
2023-03-01T09:36:27.769Z,3.52
2023-03-01T09:38:33.589Z,3.53
2023-03-01T09:40:47.514Z,3.65
2023-03-01T09:43:05.084Z,3.71
2023-03-01T09:45:18.794Z,3.70
2023-03-01T09:47:27.987Z,3.60
2023-03-01T09:49:36.745Z,3.81
2023-03-01T09:51:41.962Z,4.08
2023-03-01T09:53:47.368Z,4.08
2023-03-01T09:56:03.023Z,4.15
2023-03-01T09:58:36.257Z,4.32
2023-03-01T10:00:46.848Z,4.26
2023-03-01T10:03:00.811Z,4.43
2023-03-01T10:05:22.816Z,4.54
2023-03-01T10:07:43.411Z,4.59
2023-03-01T10:09:50.217Z,4.72
2023-03-01T10:11:59.320Z,4.87
2023-03-01T10:14:09.878Z,5.02
2023-03-01T10:16:21.844Z,5.10
2023-03-01T10:18:30.432Z,5.17
2023-03-01T10:20:47.447Z,5.28
2023-03-01T10:22:56.134Z,5.29
2023-03-01T10:25:06.663Z,5.34
2023-03-01T10:27:23.185Z,5.28
2023-03-01T10:29:34.780Z,5.29
2023-03-01T10:31:47.407Z,5.08
2023-03-01T10:33:55.906Z,5.34
2023-03-01T10:36:01.142Z,5.38
2023-03-01T10:38:11.727Z,5.63
2023-03-01T10:40:17.106Z,5.68
2023-03-01T10:42:31.964Z,5.85
2023-03-01T10:44:51.118Z,5.99
2023-03-01T10:47:05.100Z,5.99
2023-03-01T10:49:18.135Z,5.95
2023-03-01T10:51:23.304Z,5.88
2023-03-01T10:53:32.648Z,6.02
2023-03-01T10:55:40.962Z,5.98
2023-03-01T10:57:48.455Z,6.12
2023-03-01T11:00:24.936Z,6.33
2023-03-01T11:02:34.342Z,6.37
2023-03-01T11:04:39.971Z,6.30
2023-03-01T11:06:45.973Z,6.21
2023-03-01T11:08:53.925Z,6.35
2023-03-01T11:11:25.710Z,6.52
2023-03-01T11:13:33.925Z,6.69
2023-03-01T11:15:39.702Z,6.63
2023-03-01T11:17:53.846Z,6.74
2023-03-01T11:20:24.684Z,6.84
2023-03-01T11:22:29.702Z,6.90
2023-03-01T11:24:43.707Z,6.95
2023-03-01T11:26:54.255Z,6.82
2023-03-01T11:29:10.265Z,6.99
2023-03-01T11:31:17.858Z,7.05
2023-03-01T11:33:37.337Z,7.04
2023-03-01T11:35:51.540Z,6.73
2023-03-01T11:38:08.748Z,7.03
2023-03-01T11:40:26.383Z,7.27
2023-03-01T11:42:53.688Z,7.61
2023-03-01T11:45:06.075Z,7.70
2023-03-01T11:47:36.738Z,7.60
2023-03-01T11:50:17.215Z,7.70
2023-03-01T11:52:35.067Z,7.87
2023-03-01T11:54:59.536Z,7.82
2023-03-01T11:57:11.401Z,7.85
2023-03-01T12:00:06.135Z,8.13
2023-03-01T12:02:43.995Z,8.11
2023-03-01T12:05:22.489Z,8.36
2023-03-01T12:07:41.089Z,8.44
2023-03-01T12:10:21.663Z,8.53
2023-03-01T12:12:42.346Z,8.21
2023-03-01T12:15:15.506Z,8.57
2023-03-01T12:17:38.711Z,8.70
2023-03-01T12:20:20.882Z,8.40
2023-03-01T12:22:35.282Z,8.40
2023-03-01T12:25:24.812Z,8.29
2023-03-01T12:28:20.835Z,8.19
2023-03-01T12:30:46.634Z,8.32
2023-03-01T12:33:08.790Z,8.33
2023-03-01T12:36:08.078Z,8.24
2023-03-01T12:38:37.564Z,8.73
2023-03-01T12:41:07.410Z,8.72
2023-03-01T12:43:26.991Z,9.07
2023-03-01T12:46:05.414Z,9.08
2023-03-01T12:48:31.112Z,9.22
2023-03-01T12:50:44.865Z,9.32
2023-03-01T12:52:54.917Z,9.09
2023-03-01T12:55:04.622Z,9.21
2023-03-01T12:57:18.020Z,9.61
2023-03-01T12:59:30.656Z,10.05
2023-03-01T13:01:51.451Z,10.53
2023-03-01T13:04:15.536Z,11.10
2023-03-01T13:06:38.129Z,11.13
2023-03-01T13:08:54.159Z,11.28
2023-03-01T13:11:02.415Z,11.59
2023-03-01T13:13:22.021Z,11.85
2023-03-01T13:15:34.180Z,11.96
2023-03-01T13:17:49.312Z,12.09
2023-03-01T13:20:01.441Z,12.27
2023-03-01T13:22:33.479Z,12.07
2023-03-01T13:24:44.122Z,12.08
2023-03-01T13:27:30.540Z,12.20
2023-03-01T13:29:49.117Z,12.17
2023-03-01T13:32:05.914Z,12.46
2023-03-01T13:34:49.365Z,12.83
2023-03-01T13:36:54.344Z,12.52
2023-03-01T13:39:01.875Z,12.81
2023-03-01T13:41:07.915Z,13.24
2023-03-01T13:43:34.184Z,13.61
2023-03-01T13:45:43.010Z,13.46
2023-03-01T13:47:50.782Z,13.21
2023-03-01T13:50:01.939Z,13.36
2023-03-01T13:52:09.325Z,12.90
2023-03-01T13:54:17.915Z,12.71
2023-03-01T13:56:27.949Z,13.18
2023-03-01T13:58:36.987Z,13.03
2023-03-01T14:00:43.672Z,13.30
2023-03-01T14:02:51.792Z,12.79
2023-03-01T14:05:04.978Z,13.08
2023-03-01T14:07:15.929Z,13.11
2023-03-01T14:09:25.091Z,13.01
2023-03-01T14:12:17.515Z,13.54
2023-03-01T14:14:46.714Z,13.03
2023-03-01T14:17:00.263Z,13.48
2023-03-01T14:19:32.650Z,13.77
2023-03-01T14:21:41.128Z,13.98
2023-03-01T14:23:47.812Z,13.95
2023-03-01T14:25:56.093Z,13.75
2023-03-01T14:28:06.744Z,13.70
2023-03-01T14:30:22.816Z,14.53
2023-03-01T14:32:33.481Z,13.58
2023-03-01T14:34:38.745Z,13.67
2023-03-01T14:36:46.245Z,14.33
2023-03-01T14:38:51.754Z,13.67
2023-03-01T14:41:03.121Z,13.58
2023-03-01T14:43:15.742Z,13.85
2023-03-01T14:45:21.544Z,13.77
2023-03-01T14:47:31.990Z,13.94
2023-03-01T14:49:38.073Z,13.59
2023-03-01T14:51:53.223Z,13.35
2023-03-01T14:53:58.901Z,13.50
2023-03-01T14:56:06.213Z,13.01
2023-03-01T14:58:18.230Z,13.45
2023-03-01T15:00:26.724Z,13.55
2023-03-01T15:02:34.062Z,13.97
2023-03-01T15:04:39.467Z,13.47
2023-03-01T15:06:47.856Z,13.64
2023-03-01T15:08:57.884Z,13.45
2023-03-01T15:11:09.862Z,13.43
2023-03-01T15:13:16.015Z,13.20
2023-03-01T15:15:39.061Z,13.35
2023-03-01T15:17:44.016Z,13.24
2023-03-01T15:19:50.812Z,13.02
2023-03-01T15:22:00.158Z,12.92
2023-03-01T15:24:20.544Z,12.88
2023-03-01T15:26:30.480Z,13.09
2023-03-01T15:28:41.023Z,13.51
2023-03-01T15:30:46.513Z,13.22
2023-03-01T15:32:51.443Z,13.22
2023-03-01T15:34:56.474Z,13.37
2023-03-01T15:37:08.955Z,13.13
2023-03-01T15:39:45.124Z,12.63
2023-03-01T15:41:52.635Z,12.30
2023-03-01T15:43:59.067Z,12.81
2023-03-01T15:46:05.392Z,12.99
2023-03-01T15:48:26.596Z,13.35
2023-03-01T15:50:35.731Z,13.08
2023-03-01T15:52:45.892Z,12.62
2023-03-01T15:54:50.813Z,12.55
2023-03-01T15:56:56.243Z,12.35
2023-03-01T15:59:08.246Z,12.70
2023-03-01T16:01:16.833Z,12.43
2023-03-01T16:03:22.952Z,12.19
2023-03-01T16:05:32.194Z,12.39
2023-03-01T16:07:40.930Z,12.58
2023-03-01T16:09:48.448Z,12.83
2023-03-01T16:11:53.901Z,12.76
2023-03-01T16:13:59.001Z,12.39
2023-03-01T16:16:04.062Z,12.61
2023-03-01T16:18:11.970Z,13.23
2023-03-01T16:20:28.048Z,12.69
2023-03-01T16:22:33.652Z,12.15
2023-03-01T16:24:39.187Z,11.71
2023-03-01T16:26:46.679Z,11.38
2023-03-01T16:28:51.687Z,11.14
2023-03-01T16:30:56.685Z,10.42
2023-03-01T16:33:02.108Z,9.60
2023-03-01T16:35:08.548Z,9.21
2023-03-01T16:37:13.954Z,8.46
2023-03-01T16:39:18.864Z,7.98
2023-03-01T16:41:26.388Z,7.37
2023-03-01T16:43:34.067Z,6.63
2023-03-01T16:45:41.701Z,6.37
2023-03-01T16:47:47.046Z,6.15
2023-03-01T16:49:55.420Z,5.76
2023-03-01T16:52:00.595Z,5.39
2023-03-01T16:54:05.811Z,5.38
2023-03-01T16:56:13.490Z,4.98
2023-03-01T16:58:18.796Z,4.69
2023-03-01T17:00:27.176Z,4.54
2023-03-01T17:02:32.112Z,4.33
2023-03-01T17:04:37.349Z,4.19
2023-03-01T17:06:42.485Z,4.09
2023-03-01T17:08:47.577Z,4.02
2023-03-01T17:10:52.482Z,3.86
2023-03-01T17:12:57.355Z,3.81
2023-03-01T17:15:02.503Z,3.62
2023-03-01T17:17:10.348Z,3.46
2023-03-01T17:19:18.544Z,3.39
2023-03-01T17:21:23.971Z,3.36
2023-03-01T17:23:29.661Z,3.29
2023-03-01T17:25:34.556Z,3.12
2023-03-01T17:27:40.812Z,3.05
2023-03-01T17:29:45.781Z,3.03
2023-03-01T17:31:51.058Z,3.00
2023-03-01T17:34:01.200Z,2.86
2023-03-01T17:36:08.239Z,2.71
2023-03-01T17:38:13.140Z,2.62
2023-03-01T17:40:18.666Z,2.46
2023-03-01T17:42:23.591Z,2.34
2023-03-01T17:44:29.402Z,2.31
2023-03-01T17:46:34.853Z,2.40
2023-03-01T17:48:40.485Z,2.35
2023-03-01T17:50:48.229Z,2.23
2023-03-01T17:52:53.433Z,2.12
2023-03-01T17:54:59.029Z,2.01
2023-03-01T17:57:04.348Z,1.97
2023-03-01T17:59:09.423Z,1.91
2023-03-01T18:01:19.087Z,1.84
2023-03-01T18:03:24.398Z,1.73
2023-03-01T18:05:30.299Z,1.59
2023-03-01T18:07:38.559Z,1.66
2023-03-01T18:09:43.436Z,1.60
2023-03-01T18:11:48.852Z,1.58
2023-03-01T18:13:54.656Z,1.45
2023-03-01T18:16:01.870Z,1.32
2023-03-01T18:18:07.107Z,1.32
2023-03-01T18:20:15.501Z,1.29
2023-03-01T18:22:21.245Z,1.28
2023-03-01T18:24:28.759Z,1.24
2023-03-01T18:26:34.157Z,1.19
2023-03-01T18:28:40.315Z,1.12
2023-03-01T18:30:45.385Z,0.98
2023-03-01T18:32:56.142Z,0.97
2023-03-01T18:35:01.366Z,0.95
2023-03-01T18:37:09.525Z,1.02
2023-03-01T18:39:17.745Z,1.00
2023-03-01T18:41:27.153Z,1.10
2023-03-01T18:43:32.854Z,1.12
2023-03-01T18:45:38.274Z,1.01
2023-03-01T18:47:43.465Z,0.83
2023-03-01T18:49:48.403Z,0.69
2023-03-01T18:51:53.382Z,0.56
2023-03-01T18:53:58.903Z,0.45
2023-03-01T18:56:04.028Z,0.38
2023-03-01T18:58:11.560Z,0.36
2023-03-01T19:00:18.972Z,0.28
2023-03-01T19:02:24.408Z,0.40
2023-03-01T19:04:29.300Z,0.50
2023-03-01T19:06:36.538Z,0.53
2023-03-01T19:08:44.308Z,0.61
2023-03-01T19:10:49.248Z,0.64
2023-03-01T19:12:54.161Z,0.53
2023-03-01T19:15:01.794Z,0.69
2023-03-01T19:17:06.692Z,0.67
2023-03-01T19:19:11.646Z,0.59
2023-03-01T19:21:16.548Z,0.63
2023-03-01T19:23:21.399Z,0.61
2023-03-01T19:25:26.833Z,0.52
2023-03-01T19:27:31.738Z,0.46
2023-03-01T19:29:36.655Z,0.32
2023-03-01T19:31:44.134Z,0.38
2023-03-01T19:33:50.208Z,0.41
2023-03-01T19:35:56.918Z,0.37
2023-03-01T19:38:01.866Z,0.32
2023-03-01T19:40:08.658Z,0.46
2023-03-01T19:42:13.729Z,0.52
2023-03-01T19:44:18.881Z,0.48
2023-03-01T19:46:24.068Z,0.55
2023-03-01T19:48:32.278Z,0.55
2023-03-01T19:50:38.397Z,0.58
2023-03-01T19:52:43.313Z,0.58
2023-03-01T19:54:50.436Z,0.58
2023-03-01T19:56:55.867Z,0.64
2023-03-01T19:59:04.459Z,0.67
2023-03-01T20:01:18.491Z,0.66
2023-03-01T20:03:23.384Z,0.67
2023-03-01T20:05:31.104Z,0.64
2023-03-01T20:07:36.090Z,0.65
2023-03-01T20:09:41.678Z,0.75
2023-03-01T20:11:46.592Z,0.75
2023-03-01T20:13:51.484Z,0.67
2023-03-01T20:15:58.995Z,0.73
2023-03-01T20:18:04.085Z,0.68
2023-03-01T20:20:10.393Z,0.64
2023-03-01T20:22:18.354Z,0.66
2023-03-01T20:24:23.283Z,0.63
2023-03-01T20:26:29.256Z,0.55
2023-03-01T20:28:34.646Z,0.49
2023-03-01T20:30:41.174Z,0.43
2023-03-01T20:32:46.306Z,0.39
2023-03-01T20:34:52.204Z,0.31
2023-03-01T20:36:57.161Z,0.33
2023-03-01T20:39:04.677Z,0.28
2023-03-01T20:41:11.681Z,0.30
2023-03-01T20:43:16.634Z,0.31
2023-03-01T20:45:21.616Z,0.35
2023-03-01T20:47:26.512Z,0.44
2023-03-01T20:49:31.411Z,0.47
2023-03-01T20:51:36.804Z,0.55
2023-03-01T20:53:41.852Z,0.46
2023-03-01T20:55:49.511Z,0.47
2023-03-01T20:57:54.406Z,0.43
2023-03-01T20:59:59.570Z,0.54
2023-03-01T21:02:04.480Z,0.64
2023-03-01T21:04:09.984Z,0.67
2023-03-01T21:06:15.875Z,0.64
2023-03-01T21:08:20.770Z,0.50
2023-03-01T21:10:25.733Z,0.38
2023-03-01T21:12:33.754Z,0.20
2023-03-01T21:14:42.793Z,0.13
2023-03-01T21:16:48.382Z,0.29
2023-03-01T21:18:53.749Z,0.07
2023-03-01T21:21:01.466Z,0.02
2023-03-01T21:23:06.375Z,-0.25
2023-03-01T21:25:12.200Z,-0.40
2023-03-01T21:27:17.292Z,-0.54
2023-03-01T21:29:25.413Z,-0.56
2023-03-01T21:31:33.984Z,-0.46
2023-03-01T21:33:39.525Z,-0.55
2023-03-01T21:35:44.395Z,-0.66
2023-03-01T21:37:49.271Z,-0.78
2023-03-01T21:39:54.167Z,-0.84
2023-03-01T21:42:00.731Z,-0.86
2023-03-01T21:44:07.756Z,-0.82
2023-03-01T21:46:18.525Z,-0.91
2023-03-01T21:48:23.457Z,-0.93
2023-03-01T21:50:28.350Z,-1.02
2023-03-01T21:52:33.683Z,-1.04
2023-03-01T21:54:38.554Z,-1.11
2023-03-01T21:56:44.952Z,-1.17
2023-03-01T21:58:50.711Z,-1.33
2023-03-01T22:00:55.732Z,-1.41
2023-03-01T22:03:03.587Z,-1.46
2023-03-01T22:05:10.505Z,-1.42
2023-03-01T22:07:15.372Z,-1.53
2023-03-01T22:09:22.950Z,-1.58
2023-03-01T22:11:29.241Z,-1.58
2023-03-01T22:13:34.434Z,-1.60
2023-03-01T22:15:44.133Z,-1.63
2023-03-01T22:17:49.348Z,-1.76
2023-03-01T22:19:56.906Z,-1.81
2023-03-01T22:22:01.831Z,-1.77
2023-03-01T22:24:07.942Z,-1.76
2023-03-01T22:26:26.430Z,-1.76
2023-03-01T22:28:32.342Z,-1.74
2023-03-01T22:30:37.272Z,-1.79
2023-03-01T22:32:43.011Z,-1.87
2023-03-01T22:34:47.929Z,-1.95
2023-03-01T22:36:55.442Z,-1.91
2023-03-01T22:39:01.982Z,-1.88
2023-03-01T22:41:09.049Z,-1.83
2023-03-01T22:43:14.755Z,-1.93
2023-03-01T22:45:19.896Z,-2.00
2023-03-01T22:47:24.832Z,-2.07
2023-03-01T22:49:29.804Z,-2.12
2023-03-01T22:51:38.437Z,-2.20
2023-03-01T22:53:46.660Z,-2.11
2023-03-01T22:55:51.579Z,-1.97
2023-03-01T22:57:56.748Z,-1.95
2023-03-01T23:00:01.946Z,-1.97
2023-03-01T23:02:07.015Z,-1.99
2023-03-01T23:04:12.450Z,-1.94
2023-03-01T23:06:18.795Z,-1.94
2023-03-01T23:08:23.976Z,-2.02
2023-03-01T23:10:31.459Z,-2.05
2023-03-01T23:12:36.730Z,-2.13
2023-03-01T23:14:42.091Z,-2.22
2023-03-01T23:16:47.099Z,-2.15
2023-03-01T23:18:52.053Z,-2.22
2023-03-01T23:20:56.966Z,-2.12
2023-03-01T23:23:02.089Z,-2.18
2023-03-01T23:25:11.201Z,-2.25
2023-03-01T23:27:19.069Z,-2.29
2023-03-01T23:29:25.541Z,-2.35
2023-03-01T23:31:30.486Z,-2.34
2023-03-01T23:33:37.865Z,-2.32
2023-03-01T23:35:42.759Z,-2.32
2023-03-01T23:37:47.934Z,-2.39
2023-03-01T23:39:53.077Z,-2.34
2023-03-01T23:41:58.524Z,-2.29
2023-03-01T23:44:08.219Z,-2.27
2023-03-01T23:46:15.236Z,-2.33
2023-03-01T23:48:20.610Z,-2.40
2023-03-01T23:50:25.645Z,-2.41
2023-03-01T23:52:30.615Z,-2.43
2023-03-01T23:54:35.686Z,-2.46
2023-03-01T23:56:43.372Z,-2.50
2023-03-01T23:58:50.506Z,-2.51
